createdAt,value
2023-04-15T00:02:18.608Z,5.14
2023-04-15T00:05:22.253Z,5.16
2023-04-15T00:08:25.602Z,5.23
2023-04-15T00:11:28.924Z,5.18
2023-04-15T00:14:32.121Z,5.29
2023-04-15T00:17:38.432Z,5.32
2023-04-15T00:20:42.403Z,5.34
2023-04-15T00:23:45.671Z,5.35
2023-04-15T00:26:49.142Z,5.37
2023-04-15T00:29:54.096Z,5.37
2023-04-15T00:32:56.567Z,5.41
2023-04-15T00:36:01.004Z,5.43
2023-04-15T00:39:06.362Z,5.46
2023-04-15T00:42:10.640Z,5.45
2023-04-15T00:45:13.398Z,5.46
2023-04-15T00:48:17.544Z,5.46
2023-04-15T00:51:20.425Z,5.51
2023-04-15T00:54:24.019Z,5.51
2023-04-15T00:57:28.592Z,5.53
2023-04-15T01:00:31.728Z,5.50
2023-04-15T01:03:36.551Z,5.46
2023-04-15T01:06:40.199Z,5.50
2023-04-15T01:09:43.465Z,5.48
2023-04-15T01:12:47.039Z,5.50
2023-04-15T01:15:51.024Z,5.50
2023-04-15T01:18:56.554Z,5.57
2023-04-15T01:22:02.078Z,5.57
2023-04-15T01:25:11.437Z,5.59
2023-04-15T01:28:13.960Z,5.64
2023-04-15T01:31:18.220Z,5.65
2023-04-15T01:34:21.132Z,5.72
2023-04-15T01:37:25.291Z,5.79
2023-04-15T01:40:27.974Z,5.77
2023-04-15T01:43:31.455Z,5.81
2023-04-15T01:46:37.154Z,5.78
2023-04-15T01:49:40.566Z,5.79
2023-04-15T01:52:45.957Z,5.77
2023-04-15T01:55:49.611Z,5.84
2023-04-15T01:58:53.191Z,5.83
2023-04-15T02:01:56.315Z,5.91
2023-04-15T02:04:59.481Z,5.91
2023-04-15T02:08:05.381Z,5.92
2023-04-15T02:11:08.873Z,5.92
2023-04-15T02:14:11.829Z,5.91
2023-04-15T02:17:14.611Z,5.91
2023-04-15T02:20:21.830Z,5.93
2023-04-15T02:23:24.905Z,5.96
2023-04-15T02:26:41.244Z,5.99
2023-04-15T02:29:45.820Z,6.00
2023-04-15T02:32:48.908Z,6.00
2023-04-15T02:35:53.284Z,5.98
2023-04-15T02:38:55.811Z,5.99
2023-04-15T02:42:00.737Z,5.99
2023-04-15T02:45:03.684Z,5.99
2023-04-15T02:48:07.154Z,5.99
2023-04-15T02:51:20.038Z,5.98
2023-04-15T02:54:23.962Z,5.98
2023-04-15T02:57:39.333Z,5.99
2023-04-15T03:00:42.595Z,5.92
2023-04-15T03:03:46.218Z,6.02
2023-04-15T03:06:50.114Z,6.01
2023-04-15T03:09:54.555Z,5.98
2023-04-15T03:13:04.916Z,5.89
2023-04-15T03:16:09.708Z,5.96
2023-04-15T03:19:13.185Z,5.97
2023-04-15T03:22:17.231Z,5.94
2023-04-15T03:25:20.581Z,5.96
2023-04-15T03:28:25.852Z,5.91
2023-04-15T03:31:31.095Z,5.92
2023-04-15T03:34:33.933Z,5.91
2023-04-15T03:37:36.937Z,5.94
2023-04-15T03:40:43.507Z,5.95
2023-04-15T03:43:48.489Z,5.98
2023-04-15T03:46:51.235Z,5.97
2023-04-15T03:49:55.728Z,5.97
2023-04-15T03:52:58.612Z,5.94
2023-04-15T03:56:02.594Z,5.91
2023-04-15T03:59:05.001Z,5.86
2023-04-15T04:02:08.657Z,5.90
2023-04-15T04:05:13.965Z,5.91
2023-04-15T04:08:16.726Z,5.91
2023-04-15T04:11:19.760Z,5.86
2023-04-15T04:14:29.311Z,5.98
2023-04-15T04:17:40.244Z,6.00
2023-04-15T04:20:43.492Z,6.04
2023-04-15T04:23:47.276Z,6.02
2023-04-15T04:26:51.421Z,6.06
2023-04-15T04:29:54.329Z,6.04
2023-04-15T04:32:57.153Z,6.10
2023-04-15T04:36:00.983Z,6.17
2023-04-15T04:39:05.000Z,6.32
2023-04-15T04:42:07.876Z,6.37
2023-04-15T04:45:14.440Z,6.43
2023-04-15T04:48:20.021Z,6.46
2023-04-15T04:51:28.825Z,6.55
2023-04-15T04:54:32.014Z,6.52
2023-04-15T04:57:36.294Z,6.58
2023-04-15T05:00:43.473Z,6.74
2023-04-15T05:03:48.058Z,6.90
2023-04-15T05:06:51.875Z,7.30
2023-04-15T05:09:54.569Z,7.48
2023-04-15T05:13:01.289Z,7.27
2023-04-15T05:16:08.678Z,7.49
2023-04-15T05:19:12.311Z,7.55
2023-04-15T05:22:17.250Z,7.98
2023-04-15T05:25:27.960Z,7.98
2023-04-15T05:28:32.850Z,7.80
2023-04-15T05:31:37.843Z,7.61
2023-04-15T05:34:41.096Z,7.53
2023-04-15T05:37:44.336Z,7.35
2023-04-15T05:40:50.675Z,7.40
2023-04-15T05:43:58.958Z,7.48
2023-04-15T05:47:03.692Z,7.44
2023-04-15T05:50:07.466Z,7.46
2023-04-15T05:53:10.648Z,7.52
2023-04-15T05:56:13.527Z,7.59
2023-04-15T05:59:21.388Z,7.82
2023-04-15T06:02:32.072Z,8.13
2023-04-15T06:05:37.400Z,9.80
2023-04-15T06:08:43.251Z,9.82
2023-04-15T06:11:54.646Z,11.05
2023-04-15T06:15:04.849Z,11.10
2023-04-15T06:18:08.002Z,11.83
2023-04-15T06:21:19.157Z,12.37
2023-04-15T06:24:23.612Z,12.80
2023-04-15T06:27:30.076Z,12.40
2023-04-15T06:30:41.891Z,13.28
2023-04-15T06:33:45.636Z,13.35
2023-04-15T06:36:49.856Z,13.95
2023-04-15T06:39:54.635Z,12.95
2023-04-15T06:43:16.866Z,11.35
2023-04-15T06:46:20.375Z,11.79
2023-04-15T06:49:31.897Z,11.39
2023-04-15T06:52:42.852Z,11.90
2023-04-15T06:55:59.743Z,12.68
2023-04-15T06:59:06.936Z,14.66
2023-04-15T07:02:16.933Z,15.43
2023-04-15T07:05:23.922Z,15.40
2023-04-15T07:08:35.526Z,13.04
2023-04-15T07:11:41.315Z,14.43
2023-04-15T07:14:47.969Z,14.04
2023-04-15T07:17:54.878Z,14.88
2023-04-15T07:21:02.814Z,15.39
2023-04-15T07:24:08.805Z,15.33
2023-04-15T07:27:12.903Z,15.92
2023-04-15T07:30:19.784Z,16.55
2023-04-15T07:33:27.949Z,15.31
2023-04-15T07:36:37.030Z,13.47
2023-04-15T07:39:46.712Z,14.57
2023-04-15T07:42:51.841Z,13.92
2023-04-15T07:45:55.734Z,13.72
2023-04-15T07:49:00.931Z,14.06
2023-04-15T07:52:13.301Z,15.23
2023-04-15T07:55:19.397Z,16.17
2023-04-15T07:58:24.875Z,15.06
2023-04-15T08:01:28.438Z,14.41
2023-04-15T08:04:34.909Z,13.63
2023-04-15T08:07:39.867Z,12.77
2023-04-15T08:10:45.467Z,12.75
2023-04-15T08:13:51.897Z,13.59
2023-04-15T08:17:05.801Z,13.97
2023-04-15T08:20:14.849Z,13.81
2023-04-15T08:23:18.448Z,12.99
2023-04-15T08:26:30.705Z,12.36
2023-04-15T08:29:38.854Z,11.98
2023-04-15T08:32:51.849Z,12.82
2023-04-15T08:36:09.359Z,13.91
2023-04-15T08:39:14.504Z,14.12
2023-04-15T08:42:37.530Z,14.40
2023-04-15T08:45:40.641Z,14.32
2023-04-15T08:48:50.381Z,14.21
2023-04-15T08:52:09.809Z,13.05
2023-04-15T08:55:14.917Z,12.43
2023-04-15T08:58:19.183Z,12.53
2023-04-15T09:01:24.749Z,12.99
2023-04-15T09:04:32.154Z,13.17
2023-04-15T09:07:36.855Z,13.73
2023-04-15T09:10:41.289Z,13.19
2023-04-15T09:13:48.851Z,12.81
2023-04-15T09:17:04.792Z,12.99
2023-04-15T09:20:14.852Z,12.56
2023-04-15T09:23:28.248Z,12.93
2023-04-15T09:26:41.824Z,13.05
2023-04-15T09:30:01.717Z,12.74
2023-04-15T09:33:08.455Z,13.04
2023-04-15T09:36:21.263Z,14.32
2023-04-15T09:39:47.787Z,14.17
2023-04-15T09:42:57.854Z,13.31
2023-04-15T09:46:01.471Z,12.67
2023-04-15T09:49:10.832Z,12.25
2023-04-15T09:52:19.106Z,11.90
2023-04-15T09:55:24.199Z,11.75
2023-04-15T09:58:36.948Z,11.64
2023-04-15T10:01:44.952Z,11.99
2023-04-15T10:04:51.858Z,12.29
2023-04-15T10:08:03.920Z,12.33
2023-04-15T10:11:09.027Z,12.49
2023-04-15T10:14:16.770Z,12.85
2023-04-15T10:17:34.051Z,12.72
2023-04-15T10:20:44.733Z,12.89
2023-04-15T10:23:56.815Z,12.80
2023-04-15T10:27:04.588Z,13.03
2023-04-15T10:30:10.801Z,12.28
2023-04-15T10:33:28.852Z,12.23
2023-04-15T10:36:35.148Z,11.74
2023-04-15T10:39:46.822Z,11.52
2023-04-15T10:42:57.891Z,11.33
2023-04-15T10:46:13.840Z,11.45
2023-04-15T10:49:33.024Z,11.74
2023-04-15T10:52:43.027Z,11.91
2023-04-15T10:56:06.743Z,12.02
2023-04-15T10:59:16.510Z,12.02
2023-04-15T11:02:23.190Z,12.07
2023-04-15T11:05:53.880Z,12.21
2023-04-15T11:09:09.814Z,11.82
2023-04-15T11:12:16.365Z,11.74
2023-04-15T11:15:43.932Z,12.06
2023-04-15T11:18:56.748Z,12.08
2023-04-15T11:22:18.932Z,12.45
2023-04-15T11:25:33.853Z,12.19
2023-04-15T11:28:45.240Z,12.33
2023-04-15T11:31:49.936Z,12.06
2023-04-15T11:35:05.776Z,12.41
2023-04-15T11:38:18.766Z,12.60
2023-04-15T11:41:29.953Z,12.84
2023-04-15T11:44:46.889Z,12.72
2023-04-15T11:47:56.074Z,12.26
2023-04-15T11:51:04.118Z,12.21
2023-04-15T11:54:07.516Z,12.71
2023-04-15T11:57:14.083Z,12.83
2023-04-15T12:00:26.889Z,12.82
2023-04-15T12:03:31.822Z,12.93
2023-04-15T12:06:47.808Z,13.08
2023-04-15T12:10:00.073Z,13.36
2023-04-15T12:13:10.809Z,13.51
2023-04-15T12:16:19.947Z,13.61
2023-04-15T12:19:50.747Z,12.91
2023-04-15T12:23:06.865Z,12.74
2023-04-15T12:26:11.620Z,12.97
2023-04-15T12:29:18.119Z,12.51
2023-04-15T12:32:25.047Z,12.40
2023-04-15T12:35:29.849Z,12.61
2023-04-15T12:38:35.832Z,12.60
2023-04-15T12:41:41.408Z,12.82
2023-04-15T12:44:58.863Z,12.80
2023-04-15T12:48:03.840Z,12.62
2023-04-15T12:51:08.741Z,13.14
2023-04-15T12:54:12.882Z,12.61
2023-04-15T12:57:28.710Z,12.90
2023-04-15T13:00:41.706Z,12.95
2023-04-15T13:03:46.235Z,12.67
2023-04-15T13:07:03.817Z,12.48
2023-04-15T13:10:21.828Z,12.53
2023-04-15T13:13:31.688Z,12.61
2023-04-15T13:16:42.765Z,12.33
2023-04-15T13:19:48.166Z,12.30
2023-04-15T13:22:54.781Z,12.30
2023-04-15T13:26:03.055Z,12.62
2023-04-15T13:29:10.833Z,12.73
2023-04-15T13:32:28.160Z,12.66
2023-04-15T13:35:36.794Z,12.17
2023-04-15T13:38:41.016Z,12.32
2023-04-15T13:41:46.861Z,12.45
2023-04-15T13:44:52.793Z,12.42
2023-04-15T13:48:03.959Z,12.61
2023-04-15T13:51:08.096Z,12.30
2023-04-15T13:54:37.781Z,11.94
2023-04-15T13:57:43.051Z,12.40
2023-04-15T14:00:54.050Z,12.49
2023-04-15T14:04:05.342Z,12.38
2023-04-15T14:07:12.853Z,12.46
2023-04-15T14:10:20.852Z,12.22
2023-04-15T14:13:24.210Z,12.06
2023-04-15T14:16:38.848Z,11.81
2023-04-15T14:19:43.291Z,11.97
2023-04-15T14:22:53.264Z,11.89
2023-04-15T14:26:04.705Z,11.73
2023-04-15T14:29:08.862Z,11.82
2023-04-15T14:32:16.778Z,11.81
2023-04-15T14:35:28.889Z,11.72
2023-04-15T14:38:33.863Z,11.61
2023-04-15T14:41:41.933Z,11.66
2023-04-15T14:44:46.460Z,11.52
2023-04-15T14:47:57.838Z,11.44
2023-04-15T14:51:10.750Z,11.56
2023-04-15T14:54:15.826Z,11.63
2023-04-15T14:57:22.965Z,11.50
2023-04-15T15:00:28.393Z,11.53
2023-04-15T15:03:34.856Z,11.54
2023-04-15T15:06:39.740Z,11.38
2023-04-15T15:09:45.887Z,11.27
2023-04-15T15:13:01.917Z,11.06
2023-04-15T15:16:13.839Z,11.15
2023-04-15T15:19:19.835Z,11.25
2023-04-15T15:22:26.280Z,11.14
2023-04-15T15:25:36.014Z,11.14
2023-04-15T15:28:51.276Z,11.16
2023-04-15T15:32:00.901Z,11.12
2023-04-15T15:35:04.971Z,11.01
2023-04-15T15:38:11.092Z,10.97
2023-04-15T15:41:18.290Z,11.00
2023-04-15T15:44:24.728Z,10.94
2023-04-15T15:47:28.357Z,10.91
2023-04-15T15:50:38.007Z,10.90
2023-04-15T15:54:00.745Z,10.97
2023-04-15T15:57:07.019Z,10.94
2023-04-15T16:00:13.217Z,10.91
2023-04-15T16:03:17.639Z,10.86
2023-04-15T16:06:27.899Z,10.70
2023-04-15T16:09:35.811Z,10.78
2023-04-15T16:12:42.388Z,10.65
2023-04-15T16:15:54.997Z,10.46
2023-04-15T16:19:00.196Z,10.28
2023-04-15T16:22:05.765Z,10.18
2023-04-15T16:25:16.300Z,10.12
2023-04-15T16:28:27.418Z,10.10
2023-04-15T16:31:41.781Z,9.93
2023-04-15T16:34:58.831Z,9.84
2023-04-15T16:38:04.795Z,9.78
2023-04-15T16:41:14.750Z,9.78
2023-04-15T16:44:24.716Z,9.77
2023-04-15T16:47:29.868Z,9.83
2023-04-15T16:50:42.765Z,9.83
2023-04-15T16:53:51.041Z,9.90
2023-04-15T16:57:03.786Z,9.89
2023-04-15T17:00:14.155Z,9.89
2023-04-15T17:03:19.996Z,9.84
2023-04-15T17:06:34.575Z,9.75
2023-04-15T17:09:46.058Z,9.72
2023-04-15T17:13:00.202Z,9.70
2023-04-15T17:16:03.170Z,9.65
2023-04-15T17:19:07.873Z,9.66
2023-04-15T17:22:25.839Z,9.60
2023-04-15T17:25:35.504Z,9.59
2023-04-15T17:28:52.763Z,9.52
2023-04-15T17:32:13.630Z,9.53
2023-04-15T17:35:23.914Z,9.43
2023-04-15T17:38:30.330Z,9.37
2023-04-15T17:41:40.219Z,9.33
2023-04-15T17:44:52.858Z,9.32
2023-04-15T17:48:08.787Z,9.27
2023-04-15T17:51:21.849Z,9.23
2023-04-15T17:54:43.957Z,9.19
2023-04-15T17:57:57.909Z,9.16
2023-04-15T18:01:05.578Z,9.14
2023-04-15T18:04:17.922Z,9.16
2023-04-15T18:07:37.718Z,9.03
2023-04-15T18:10:48.383Z,8.99
2023-04-15T18:13:54.728Z,8.85
2023-04-15T18:17:00.828Z,8.90
2023-04-15T18:20:08.102Z,8.88
2023-04-15T18:23:14.878Z,8.82
2023-04-15T18:26:20.781Z,8.73
2023-04-15T18:29:30.973Z,8.62
2023-04-15T18:32:42.820Z,8.56
2023-04-15T18:35:57.752Z,8.57
2023-04-15T18:39:10.040Z,8.49
2023-04-15T18:42:29.023Z,8.44
2023-04-15T18:45:39.143Z,8.38
2023-04-15T18:48:51.430Z,8.38
2023-04-15T18:51:57.755Z,8.32
2023-04-15T18:55:16.518Z,8.28
2023-04-15T18:58:27.997Z,8.22
2023-04-15T19:02:00.380Z,8.15
2023-04-15T19:05:10.216Z,8.18
2023-04-15T19:08:13.984Z,8.22
2023-04-15T19:11:29.919Z,8.20
2023-04-15T19:14:43.805Z,8.18
2023-04-15T19:17:51.337Z,8.15
2023-04-15T19:20:57.610Z,8.20
2023-04-15T19:24:01.884Z,8.17
2023-04-15T19:27:18.778Z,8.10
2023-04-15T19:30:25.970Z,8.10
2023-04-15T19:33:35.781Z,8.00
2023-04-15T19:36:42.918Z,7.99
2023-04-15T19:39:47.741Z,8.07
2023-04-15T19:42:55.446Z,8.10
2023-04-15T19:46:01.754Z,8.07
2023-04-15T19:49:07.339Z,8.03
2023-04-15T19:52:19.803Z,8.01
2023-04-15T19:55:28.362Z,7.97
2023-04-15T19:58:33.807Z,7.93
2023-04-15T20:01:41.461Z,7.93
2023-04-15T20:04:52.840Z,8.01
2023-04-15T20:08:01.774Z,8.05
2023-04-15T20:11:05.847Z,8.03
2023-04-15T20:14:14.632Z,8.06
2023-04-15T20:17:19.204Z,8.03
2023-04-15T20:20:24.796Z,8.02
2023-04-15T20:23:31.242Z,8.05
2023-04-15T20:26:34.249Z,8.07
2023-04-15T20:29:42.319Z,8.08
2023-04-15T20:32:55.485Z,8.06
2023-04-15T20:36:02.983Z,8.00
2023-04-15T20:39:07.022Z,8.01
2023-04-15T20:42:12.996Z,7.92
2023-04-15T20:45:23.745Z,7.94
2023-04-15T20:48:27.757Z,7.90
2023-04-15T20:51:38.765Z,7.89
2023-04-15T20:54:42.500Z,7.84
2023-04-15T20:57:45.661Z,7.83
2023-04-15T21:00:51.867Z,7.80
2023-04-15T21:03:58.067Z,7.79
2023-04-15T21:07:06.862Z,7.73
2023-04-15T21:10:12.355Z,7.66
2023-04-15T21:13:17.806Z,7.64
2023-04-15T21:16:22.107Z,7.60
2023-04-15T21:19:25.186Z,7.58
2023-04-15T21:22:31.917Z,7.63
2023-04-15T21:25:40.708Z,7.58
2023-04-15T21:28:48.835Z,7.55
2023-04-15T21:31:52.966Z,7.62
2023-04-15T21:34:58.975Z,7.57
2023-04-15T21:38:02.932Z,7.62
2023-04-15T21:41:09.552Z,7.55
2023-04-15T21:44:15.030Z,7.59
2023-04-15T21:47:19.467Z,7.60
2023-04-15T21:50:29.179Z,7.64
2023-04-15T21:53:31.995Z,7.66
2023-04-15T21:56:37.842Z,7.68
2023-04-15T21:59:48.679Z,7.71
2023-04-15T22:02:52.817Z,7.69
2023-04-15T22:05:57.428Z,7.59
2023-04-15T22:09:00.403Z,7.51
2023-04-15T22:12:04.056Z,7.57
2023-04-15T22:15:07.568Z,7.62
2023-04-15T22:18:13.071Z,7.64
2023-04-15T22:21:17.036Z,7.66
2023-04-15T22:24:32.091Z,7.68
2023-04-15T22:27:47.280Z,7.69
2023-04-15T22:30:54.133Z,7.55
2023-04-15T22:33:58.930Z,7.56
2023-04-15T22:37:07.821Z,7.53
2023-04-15T22:40:11.492Z,7.49
2023-04-15T22:43:16.796Z,7.40
2023-04-15T22:46:20.064Z,7.38
2023-04-15T22:49:22.902Z,7.37
2023-04-15T22:52:30.450Z,7.35
2023-04-15T22:55:35.633Z,7.29
2023-04-15T22:58:38.901Z,7.26
2023-04-15T23:01:43.219Z,7.29
2023-04-15T23:04:46.461Z,7.23
2023-04-15T23:07:49.178Z,7.28
2023-04-15T23:10:52.737Z,7.23
2023-04-15T23:13:56.663Z,7.20
2023-04-15T23:17:00.685Z,7.26
2023-04-15T23:20:04.805Z,7.21
2023-04-15T23:23:08.507Z,7.19
2023-04-15T23:26:11.670Z,7.19
2023-04-15T23:29:14.245Z,7.21
2023-04-15T23:32:18.000Z,7.19
2023-04-15T23:35:20.660Z,7.16
2023-04-15T23:38:24.095Z,7.04
2023-04-15T23:41:27.810Z,6.92
2023-04-15T23:44:32.020Z,6.95
2023-04-15T23:47:36.951Z,6.86
2023-04-15T23:50:41.107Z,6.81
2023-04-15T23:53:46.013Z,6.76
2023-04-15T23:56:50.084Z,6.70
2023-04-15T23:59:54.049Z,6.68
